Skip Navigation LinksHome page > Tools > METAR decoder Skip Navigation Links

METAR decoder

Settings

METAR

Chicago O'Hare Intl, Chicago

For information only: do not use for flight planning or navigation.
Latest weather
Observation time Tuesday, May 31, 2016 11:51 AM CDT
Local time Tuesday, May 31, 2016 12:55 PM CDT
Flight conditions Visual Meteorological Conditions
Winds
Wind direction East (100°)
Wind speed 10 mph
Visibility 10 mi.
Sky condition
Ceiling 25,000 ft. broken clouds
Cloud layer few clouds 6,000 ft.
Cloud layer few clouds 10,000 ft.
Cloud layer broken clouds 25,000 ft.
Temperature 81°F
Dewpoint 58°F
Altimeter 29.97 in.Hg
Derived measurements
Relative humidity 46%
Heat index 81°F
Density altitude 2247 ft.
Sea-level pressure 29.96 in.Hg
Remarks
Automated weather observing station with precipitation discriminator.
Cumulonimbus clouds observed distant west.
METAR KORD 311651Z 10009KT 10SM FEW060 FEW100 BKN250 27/14 A2997 RMK AO2 SLP146 CB DSNT W T02720144

InnerDrive.Weather 4.0.5722.1 Release CLR 4.0.30319.34209
Copyright ©2015 Inner Drive Technology. All rights reserved. Portions Copyright ©1986-2015 David Braverman.

Find weather

Site navigation


Skip Navigation Links

Place info

Page info

PayPal - The safer, easier way to pay online!

Return home.

Copyright ©2016 Inner Drive Technology. Purveyors of fine, hand-crafted computer software. Page printed 2016-05-31T17:55:26 UTC.